sensor_id;sensor_type;location;lat;lon;timestamp;P1;durP1;ratioP1;P2;durP2;ratioP2
76854;SDS011;66343;44.588;33.450;2023-05-10T00:01:52;5.22;;;1.35;;
76854;SDS011;66343;44.588;33.450;2023-05-10T00:04:26;6.78;;;1.45;;
76854;SDS011;66343;44.588;33.450;2023-05-10T00:06:55;6.40;;;1.50;;
76854;SDS011;66343;44.588;33.450;2023-05-10T00:09:30;4.60;;;1.63;;
76854;SDS011;66343;44.588;33.450;2023-05-10T00:12:08;4.78;;;1.55;;
76854;SDS011;66343;44.588;33.450;2023-05-10T00:14:37;6.03;;;1.50;;
76854;SDS011;66343;44.588;33.450;2023-05-10T00:17:10;4.65;;;1.35;;
76854;SDS011;66343;44.588;33.450;2023-05-10T00:19:45;4.80;;;1.50;;
76854;SDS011;66343;44.588;33.450;2023-05-10T00:22:17;6.28;;;1.80;;
76854;SDS011;66343;44.588;33.450;2023-05-10T00:24:46;5.53;;;1.42;;
76854;SDS011;66343;44.588;33.450;2023-05-10T00:27:24;4.88;;;1.33;;
76854;SDS011;66343;44.588;33.450;2023-05-10T00:29:56;4.45;;;1.20;;
76854;SDS011;66343;44.588;33.450;2023-05-10T00:32:29;4.20;;;1.27;;
76854;SDS011;66343;44.588;33.450;2023-05-10T00:35:01;4.82;;;1.83;;
76854;SDS011;66343;44.588;33.450;2023-05-10T00:37:35;3.88;;;1.23;;
76854;SDS011;66343;44.588;33.450;2023-05-10T00:40:06;5.53;;;1.80;;
76854;SDS011;66343;44.588;33.450;2023-05-10T00:42:36;9.38;;;1.80;;
76854;SDS011;66343;44.588;33.450;2023-05-10T00:45:13;5.78;;;1.75;;
76854;SDS011;66343;44.588;33.450;2023-05-10T00:47:42;4.00;;;1.48;;
76854;SDS011;66343;44.588;33.450;2023-05-10T00:50:14;10.20;;;2.00;;
76854;SDS011;66343;44.588;33.450;2023-05-10T00:52:49;4.97;;;1.38;;
76854;SDS011;66343;44.588;33.450;2023-05-10T00:55:25;4.90;;;1.60;;
76854;SDS011;66343;44.588;33.450;2023-05-10T00:57:56;4.43;;;1.38;;
76854;SDS011;66343;44.588;33.450;2023-05-10T01:00:29;4.78;;;1.40;;
76854;SDS011;66343;44.588;33.450;2023-05-10T01:03:06;5.22;;;1.50;;
76854;SDS011;66343;44.588;33.450;2023-05-10T01:05:39;4.15;;;1.48;;
76854;SDS011;66343;44.588;33.450;2023-05-10T01:08:13;3.85;;;1.33;;
76854;SDS011;66343;44.588;33.450;2023-05-10T01:10:49;4.82;;;1.52;;
76854;SDS011;66343;44.588;33.450;2023-05-10T01:13:40;3.90;;;1.40;;
76854;SDS011;66343;44.588;33.450;2023-05-10T01:16:18;6.20;;;1.40;;
76854;SDS011;66343;44.588;33.450;2023-05-10T01:18:49;4.95;;;1.50;;
76854;SDS011;66343;44.588;33.450;2023-05-10T01:36:08;6.45;;;1.80;;
76854;SDS011;66343;44.588;33.450;2023-05-10T01:38:49;4.93;;;1.77;;
76854;SDS011;66343;44.588;33.450;2023-05-10T01:41:36;4.93;;;1.42;;
76854;SDS011;66343;44.588;33.450;2023-05-10T01:44:31;4.85;;;1.70;;
76854;SDS011;66343;44.588;33.450;2023-05-10T01:47:11;6.88;;;1.52;;
76854;SDS011;66343;44.588;33.450;2023-05-10T01:49:53;9.18;;;1.83;;
76854;SDS011;66343;44.588;33.450;2023-05-10T01:52:28;5.10;;;1.63;;
76854;SDS011;66343;44.588;33.450;2023-05-10T01:55:02;6.05;;;1.90;;
76854;SDS011;66343;44.588;33.450;2023-05-10T01:57:43;6.82;;;1.95;;
76854;SDS011;66343;44.588;33.450;2023-05-10T02:00:17;5.95;;;1.55;;
76854;SDS011;66343;44.588;33.450;2023-05-10T02:02:51;9.75;;;1.88;;
76854;SDS011;66343;44.588;33.450;2023-05-10T02:05:30;7.40;;;2.15;;
76854;SDS011;66343;44.588;33.450;2023-05-10T02:08:07;6.20;;;1.90;;
76854;SDS011;66343;44.588;33.450;2023-05-10T02:10:41;6.38;;;1.85;;
76854;SDS011;66343;44.588;33.450;2023-05-10T02:13:17;6.78;;;1.83;;
76854;SDS011;66343;44.588;33.450;2023-05-10T02:15:50;6.55;;;1.80;;
76854;SDS011;66343;44.588;33.450;2023-05-10T02:18:25;5.85;;;1.70;;
76854;SDS011;66343;44.588;33.450;2023-05-10T02:21:02;4.28;;;1.60;;
76854;SDS011;66343;44.588;33.450;2023-05-10T02:23:34;5.93;;;1.83;;
76854;SDS011;66343;44.588;33.450;2023-05-10T02:26:04;6.78;;;1.95;;
76854;SDS011;66343;44.588;33.450;2023-05-10T02:28:44;7.72;;;1.75;;
76854;SDS011;66343;44.588;33.450;2023-05-10T02:31:17;5.35;;;1.77;;
76854;SDS011;66343;44.588;33.450;2023-05-10T02:33:51;5.28;;;1.73;;
76854;SDS011;66343;44.588;33.450;2023-05-10T02:36:29;6.95;;;1.83;;
76854;SDS011;66343;44.588;33.450;2023-05-10T02:39:04;5.57;;;1.90;;
76854;SDS011;66343;44.588;33.450;2023-05-10T02:41:41;6.82;;;1.65;;
76854;SDS011;66343;44.588;33.450;2023-05-10T02:44:14;5.97;;;2.00;;
76854;SDS011;66343;44.588;33.450;2023-05-10T02:46:47;6.35;;;2.00;;
76854;SDS011;66343;44.588;33.450;2023-05-10T02:49:19;6.18;;;1.88;;
76854;SDS011;66343;44.588;33.450;2023-05-10T02:51:51;4.60;;;1.60;;
76854;SDS011;66343;44.588;33.450;2023-05-10T02:54:30;5.63;;;1.75;;
76854;SDS011;66343;44.588;33.450;2023-05-10T02:57:09;5.60;;;1.70;;
76854;SDS011;66343;44.588;33.450;2023-05-10T02:59:52;5.05;;;1.80;;
76854;SDS011;66343;44.588;33.450;2023-05-10T03:02:23;4.55;;;1.58;;
76854;SDS011;66343;44.588;33.450;2023-05-10T03:04:53;6.35;;;1.73;;
76854;SDS011;66343;44.588;33.450;2023-05-10T03:07:22;5.60;;;2.20;;
76854;SDS011;66343;44.588;33.450;2023-05-10T03:10:00;8.30;;;2.15;;
76854;SDS011;66343;44.588;33.450;2023-05-10T03:13:09;6.63;;;1.95;;
76854;SDS011;66343;44.588;33.450;2023-05-10T03:15:37;6.93;;;1.98;;
76854;SDS011;66343;44.588;33.450;2023-05-10T03:21:17;5.80;;;2.03;;
76854;SDS011;66343;44.588;33.450;2023-05-10T03:23:58;6.05;;;1.83;;
76854;SDS011;66343;44.588;33.450;2023-05-10T03:26:32;6.88;;;2.20;;
76854;SDS011;66343;44.588;33.450;2023-05-10T03:29:18;6.38;;;2.33;;
76854;SDS011;66343;44.588;33.450;2023-05-10T03:31:52;6.28;;;2.03;;
76854;SDS011;66343;44.588;33.450;2023-05-10T03:34:29;6.72;;;2.33;;
76854;SDS011;66343;44.588;33.450;2023-05-10T03:36:59;7.13;;;2.28;;
76854;SDS011;66343;44.588;33.450;2023-05-10T03:39:40;6.95;;;2.35;;
76854;SDS011;66343;44.588;33.450;2023-05-10T03:42:10;6.15;;;2.30;;
76854;SDS011;66343;44.588;33.450;2023-05-10T03:44:45;5.93;;;2.25;;
76854;SDS011;66343;44.588;33.450;2023-05-10T03:47:21;6.40;;;2.20;;
76854;SDS011;66343;44.588;33.450;2023-05-10T03:49:56;7.07;;;2.67;;
76854;SDS011;66343;44.588;33.450;2023-05-10T03:52:31;6.88;;;2.42;;
76854;SDS011;66343;44.588;33.450;2023-05-10T03:55:05;5.55;;;2.47;;
76854;SDS011;66343;44.588;33.450;2023-05-10T03:57:35;6.53;;;2.75;;
76854;SDS011;66343;44.588;33.450;2023-05-10T04:00:14;9.60;;;2.50;;
76854;SDS011;66343;44.588;33.450;2023-05-10T04:02:54;6.85;;;2.90;;
76854;SDS011;66343;44.588;33.450;2023-05-10T04:05:26;6.75;;;2.80;;
76854;SDS011;66343;44.588;33.450;2023-05-10T04:07:56;6.65;;;2.53;;
76854;SDS011;66343;44.588;33.450;2023-05-10T04:10:28;7.68;;;2.67;;
76854;SDS011;66343;44.588;33.450;2023-05-10T04:13:10;7.90;;;2.70;;
76854;SDS011;66343;44.588;33.450;2023-05-10T04:15:43;5.97;;;2.50;;
76854;SDS011;66343;44.588;33.450;2023-05-10T04:18:16;7.72;;;2.83;;
76854;SDS011;66343;44.588;33.450;2023-05-10T04:20:55;7.28;;;3.10;;
76854;SDS011;66343;44.588;33.450;2023-05-10T04:23:26;6.97;;;3.17;;
76854;SDS011;66343;44.588;33.450;2023-05-10T04:26:00;6.43;;;2.83;;
76854;SDS011;66343;44.588;33.450;2023-05-10T04:28:29;7.28;;;3.40;;
76854;SDS011;66343;44.588;33.450;2023-05-10T04:31:04;8.23;;;3.17;;
76854;SDS011;66343;44.588;33.450;2023-05-10T04:33:37;8.02;;;3.25;;
76854;SDS011;66343;44.588;33.450;2023-05-10T04:36:14;7.45;;;3.30;;
76854;SDS011;66343;44.588;33.450;2023-05-10T04:38:44;7.65;;;2.55;;
76854;SDS011;66343;44.588;33.450;2023-05-10T04:41:15;6.50;;;2.72;;
76854;SDS011;66343;44.588;33.450;2023-05-10T04:43:44;6.78;;;3.22;;
76854;SDS011;66343;44.588;33.450;2023-05-10T04:46:18;7.28;;;2.92;;
76854;SDS011;66343;44.588;33.450;2023-05-10T04:48:50;8.25;;;2.88;;
76854;SDS011;66343;44.588;33.450;2023-05-10T04:51:24;15.10;;;3.55;;
76854;SDS011;66343;44.588;33.450;2023-05-10T04:53:58;7.53;;;2.83;;
76854;SDS011;66343;44.588;33.450;2023-05-10T04:56:38;7.45;;;2.70;;
76854;SDS011;66343;44.588;33.450;2023-05-10T04:59:15;7.15;;;2.70;;
76854;SDS011;66343;44.588;33.450;2023-05-10T05:01:44;7.70;;;2.90;;
76854;SDS011;66343;44.588;33.450;2023-05-10T05:04:13;9.40;;;3.08;;
76854;SDS011;66343;44.588;33.450;2023-05-10T05:06:47;7.20;;;2.95;;
76854;SDS011;66343;44.588;33.450;2023-05-10T05:09:26;13.82;;;3.38;;
76854;SDS011;66343;44.588;33.450;2023-05-10T05:12:00;6.82;;;2.58;;
76854;SDS011;66343;44.588;33.450;2023-05-10T05:14:32;6.15;;;2.83;;
76854;SDS011;66343;44.588;33.450;2023-05-10T05:17:03;6.97;;;2.65;;
76854;SDS011;66343;44.588;33.450;2023-05-10T05:19:37;8.55;;;3.05;;
76854;SDS011;66343;44.588;33.450;2023-05-10T05:22:10;9.52;;;3.22;;
76854;SDS011;66343;44.588;33.450;2023-05-10T05:24:44;9.93;;;2.90;;
76854;SDS011;66343;44.588;33.450;2023-05-10T05:27:17;9.75;;;3.13;;
76854;SDS011;66343;44.588;33.450;2023-05-10T05:29:50;9.57;;;2.80;;
76854;SDS011;66343;44.588;33.450;2023-05-10T05:32:27;7.57;;;2.38;;
76854;SDS011;66343;44.588;33.450;2023-05-10T05:34:59;5.75;;;2.30;;
76854;SDS011;66343;44.588;33.450;2023-05-10T05:37:32;9.40;;;3.20;;
76854;SDS011;66343;44.588;33.450;2023-05-10T05:40:04;7.63;;;2.33;;
76854;SDS011;66343;44.588;33.450;2023-05-10T05:42:43;7.30;;;2.80;;
76854;SDS011;66343;44.588;33.450;2023-05-10T05:45:15;9.60;;;3.17;;
76854;SDS011;66343;44.588;33.450;2023-05-10T05:47:50;6.43;;;2.20;;
76854;SDS011;66343;44.588;33.450;2023-05-10T05:50:19;7.55;;;2.40;;
76854;SDS011;66343;44.588;33.450;2023-05-10T05:52:56;7.30;;;2.72;;
76854;SDS011;66343;44.588;33.450;2023-05-10T05:55:30;8.20;;;2.58;;
76854;SDS011;66343;44.588;33.450;2023-05-10T05:58:05;6.28;;;2.00;;
76854;SDS011;66343;44.588;33.450;2023-05-10T06:00:39;7.75;;;2.30;;
76854;SDS011;66343;44.588;33.450;2023-05-10T06:03:17;7.45;;;2.35;;
76854;SDS011;66343;44.588;33.450;2023-05-10T06:05:49;10.65;;;5.00;;
76854;SDS011;66343;44.588;33.450;2023-05-10T06:08:21;7.95;;;2.40;;
76854;SDS011;66343;44.588;33.450;2023-05-10T06:10:58;5.70;;;2.25;;
76854;SDS011;66343;44.588;33.450;2023-05-10T06:13:33;6.10;;;2.22;;
76854;SDS011;66343;44.588;33.450;2023-05-10T06:16:11;10.73;;;2.92;;
76854;SDS011;66343;44.588;33.450;2023-05-10T06:18:43;8.98;;;2.30;;
76854;SDS011;66343;44.588;33.450;2023-05-10T06:21:17;9.20;;;2.85;;
76854;SDS011;66343;44.588;33.450;2023-05-10T06:23:52;5.85;;;2.30;;
76854;SDS011;66343;44.588;33.450;2023-05-10T06:26:24;7.35;;;2.40;;
76854;SDS011;66343;44.588;33.450;2023-05-10T06:29:01;5.90;;;2.10;;
76854;SDS011;66343;44.588;33.450;2023-05-10T06:31:33;9.25;;;2.60;;
76854;SDS011;66343;44.588;33.450;2023-05-10T06:36:46;7.55;;;2.30;;
76854;SDS011;66343;44.588;33.450;2023-05-10T06:39:17;6.82;;;2.63;;
76854;SDS011;66343;44.588;33.450;2023-05-10T06:41:52;5.85;;;2.28;;
76854;SDS011;66343;44.588;33.450;2023-05-10T06:44:26;7.32;;;2.42;;
76854;SDS011;66343;44.588;33.450;2023-05-10T06:47:01;7.85;;;2.55;;
76854;SDS011;66343;44.588;33.450;2023-05-10T06:49:40;6.32;;;2.38;;
76854;SDS011;66343;44.588;33.450;2023-05-10T06:52:17;6.43;;;2.58;;
76854;SDS011;66343;44.588;33.450;2023-05-10T06:54:52;8.45;;;2.83;;
76854;SDS011;66343;44.588;33.450;2023-05-10T06:57:26;6.25;;;2.45;;
76854;SDS011;66343;44.588;33.450;2023-05-10T07:00:02;7.20;;;2.78;;
76854;SDS011;66343;44.588;33.450;2023-05-10T07:02:35;6.93;;;2.50;;
76854;SDS011;66343;44.588;33.450;2023-05-10T07:05:10;6.70;;;2.28;;
76854;SDS011;66343;44.588;33.450;2023-05-10T07:07:48;8.10;;;2.20;;
76854;SDS011;66343;44.588;33.450;2023-05-10T07:10:23;7.30;;;2.25;;
76854;SDS011;66343;44.588;33.450;2023-05-10T07:12:57;6.82;;;2.13;;
76854;SDS011;66343;44.588;33.450;2023-05-10T07:15:30;6.95;;;2.30;;
76854;SDS011;66343;44.588;33.450;2023-05-10T07:18:01;6.57;;;2.13;;
76854;SDS011;66343;44.588;33.450;2023-05-10T07:20:33;7.20;;;2.22;;
76854;SDS011;66343;44.588;33.450;2023-05-10T07:23:07;6.40;;;2.13;;
76854;SDS011;66343;44.588;33.450;2023-05-10T07:25:41;7.20;;;2.40;;
76854;SDS011;66343;44.588;33.450;2023-05-10T07:28:13;6.35;;;2.15;;
76854;SDS011;66343;44.588;33.450;2023-05-10T07:30:48;5.85;;;2.20;;
76854;SDS011;66343;44.588;33.450;2023-05-10T07:33:20;6.35;;;2.00;;
76854;SDS011;66343;44.588;33.450;2023-05-10T07:35:57;10.07;;;2.20;;
76854;SDS011;66343;44.588;33.450;2023-05-10T07:38:29;7.15;;;1.75;;
76854;SDS011;66343;44.588;33.450;2023-05-10T07:41:06;8.93;;;2.40;;
76854;SDS011;66343;44.588;33.450;2023-05-10T07:43:39;6.07;;;1.70;;
76854;SDS011;66343;44.588;33.450;2023-05-10T07:46:15;6.07;;;2.08;;
76854;SDS011;66343;44.588;33.450;2023-05-10T07:48:45;4.97;;;1.92;;
76854;SDS011;66343;44.588;33.450;2023-05-10T07:51:16;7.88;;;2.28;;
76854;SDS011;66343;44.588;33.450;2023-05-10T07:53:45;5.63;;;2.10;;
76854;SDS011;66343;44.588;33.450;2023-05-10T07:56:27;6.93;;;1.73;;
76854;SDS011;66343;44.588;33.450;2023-05-10T07:59:03;5.50;;;1.88;;
76854;SDS011;66343;44.588;33.450;2023-05-10T08:01:40;5.97;;;2.13;;
76854;SDS011;66343;44.588;33.450;2023-05-10T08:04:17;6.45;;;2.30;;
76854;SDS011;66343;44.588;33.450;2023-05-10T08:06:51;6.47;;;1.85;;
76854;SDS011;66343;44.588;33.450;2023-05-10T08:09:23;5.40;;;2.25;;
76854;SDS011;66343;44.588;33.450;2023-05-10T08:12:00;5.97;;;2.20;;
76854;SDS011;66343;44.588;33.450;2023-05-10T08:14:32;5.03;;;1.95;;
76854;SDS011;66343;44.588;33.450;2023-05-10T08:17:08;10.68;;;2.53;;
76854;SDS011;66343;44.588;33.450;2023-05-10T08:19:41;7.15;;;2.10;;
76854;SDS011;66343;44.588;33.450;2023-05-10T08:22:10;6.65;;;1.95;;
76854;SDS011;66343;44.588;33.450;2023-05-10T08:24:50;6.63;;;2.00;;
76854;SDS011;66343;44.588;33.450;2023-05-10T08:27:23;6.20;;;1.90;;
76854;SDS011;66343;44.588;33.450;2023-05-10T08:29:52;5.50;;;1.70;;
76854;SDS011;66343;44.588;33.450;2023-05-10T08:32:27;7.05;;;1.83;;
76854;SDS011;66343;44.588;33.450;2023-05-10T08:35:04;4.97;;;1.50;;
76854;SDS011;66343;44.588;33.450;2023-05-10T08:37:34;4.43;;;1.50;;
76854;SDS011;66343;44.588;33.450;2023-05-10T08:40:10;5.93;;;1.80;;
76854;SDS011;66343;44.588;33.450;2023-05-10T08:42:45;5.72;;;1.40;;
76854;SDS011;66343;44.588;33.450;2023-05-10T08:45:38;7.22;;;2.22;;
76854;SDS011;66343;44.588;33.450;2023-05-10T08:48:11;7.88;;;1.92;;
76854;SDS011;66343;44.588;33.450;2023-05-10T08:50:46;6.78;;;1.80;;
76854;SDS011;66343;44.588;33.450;2023-05-10T08:53:21;8.90;;;1.85;;
76854;SDS011;66343;44.588;33.450;2023-05-10T08:55:55;5.38;;;1.65;;
76854;SDS011;66343;44.588;33.450;2023-05-10T08:58:27;4.97;;;2.33;;
76854;SDS011;66343;44.588;33.450;2023-05-10T09:01:02;4.68;;;1.70;;
76854;SDS011;66343;44.588;33.450;2023-05-10T09:03:43;6.22;;;2.30;;
76854;SDS011;66343;44.588;33.450;2023-05-10T09:06:18;5.22;;;1.45;;
76854;SDS011;66343;44.588;33.450;2023-05-10T09:08:50;7.63;;;2.05;;
76854;SDS011;66343;44.588;33.450;2023-05-10T09:11:21;5.90;;;1.95;;
76854;SDS011;66343;44.588;33.450;2023-05-10T09:13:51;5.15;;;2.10;;
76854;SDS011;66343;44.588;33.450;2023-05-10T09:16:24;6.65;;;2.25;;
76854;SDS011;66343;44.588;33.450;2023-05-10T09:18:58;4.95;;;1.58;;
76854;SDS011;66343;44.588;33.450;2023-05-10T09:21:27;4.28;;;1.60;;
76854;SDS011;66343;44.588;33.450;2023-05-10T09:24:02;6.07;;;1.92;;
76854;SDS011;66343;44.588;33.450;2023-05-10T09:26:45;6.40;;;1.83;;
76854;SDS011;66343;44.588;33.450;2023-05-10T09:29:22;6.25;;;2.30;;
76854;SDS011;66343;44.588;33.450;2023-05-10T09:31:56;8.48;;;2.45;;
76854;SDS011;66343;44.588;33.450;2023-05-10T09:34:29;4.97;;;1.90;;
76854;SDS011;66343;44.588;33.450;2023-05-10T09:37:04;6.50;;;2.30;;
76854;SDS011;66343;44.588;33.450;2023-05-10T09:39:36;5.68;;;2.00;;
76854;SDS011;66343;44.588;33.450;2023-05-10T09:42:17;7.10;;;2.10;;
76854;SDS011;66343;44.588;33.450;2023-05-10T09:44:49;11.20;;;2.55;;
76854;SDS011;66343;44.588;33.450;2023-05-10T09:47:21;6.22;;;1.98;;
76854;SDS011;66343;44.588;33.450;2023-05-10T09:49:53;7.05;;;2.47;;
76854;SDS011;66343;44.588;33.450;2023-05-10T09:52:46;7.28;;;2.28;;
76854;SDS011;66343;44.588;33.450;2023-05-10T09:55:45;8.70;;;2.20;;
76854;SDS011;66343;44.588;33.450;2023-05-10T09:58:18;6.90;;;2.30;;
76854;SDS011;66343;44.588;33.450;2023-05-10T10:00:47;7.88;;;2.17;;
76854;SDS011;66343;44.588;33.450;2023-05-10T10:03:24;5.05;;;1.90;;
76854;SDS011;66343;44.588;33.450;2023-05-10T10:05:58;7.93;;;2.00;;
76854;SDS011;66343;44.588;33.450;2023-05-10T10:08:35;5.65;;;1.80;;
76854;SDS011;66343;44.588;33.450;2023-05-10T10:11:04;7.47;;;1.83;;
76854;SDS011;66343;44.588;33.450;2023-05-10T10:13:42;6.25;;;1.83;;
76854;SDS011;66343;44.588;33.450;2023-05-10T10:16:11;5.53;;;1.65;;
76854;SDS011;66343;44.588;33.450;2023-05-10T10:18:47;5.32;;;1.70;;
76854;SDS011;66343;44.588;33.450;2023-05-10T10:21:20;6.10;;;1.73;;
76854;SDS011;66343;44.588;33.450;2023-05-10T10:23:56;6.45;;;1.92;;
76854;SDS011;66343;44.588;33.450;2023-05-10T10:26:34;5.82;;;1.83;;
76854;SDS011;66343;44.588;33.450;2023-05-10T10:35:23;4.75;;;1.48;;
76854;SDS011;66343;44.588;33.450;2023-05-10T10:37:55;5.70;;;1.45;;
76854;SDS011;66343;44.588;33.450;2023-05-10T10:40:30;4.57;;;1.50;;
76854;SDS011;66343;44.588;33.450;2023-05-10T10:46:11;4.18;;;1.60;;
76854;SDS011;66343;44.588;33.450;2023-05-10T10:49:10;7.38;;;1.90;;
76854;SDS011;66343;44.588;33.450;2023-05-10T10:52:12;4.93;;;1.45;;
76854;SDS011;66343;44.588;33.450;2023-05-10T10:55:18;7.05;;;1.85;;
76854;SDS011;66343;44.588;33.450;2023-05-10T10:57:50;5.53;;;1.73;;
76854;SDS011;66343;44.588;33.450;2023-05-10T11:00:36;5.13;;;1.52;;
76854;SDS011;66343;44.588;33.450;2023-05-10T11:03:12;5.78;;;1.67;;
76854;SDS011;66343;44.588;33.450;2023-05-10T11:05:53;3.75;;;1.23;;
76854;SDS011;66343;44.588;33.450;2023-05-10T11:08:30;5.78;;;1.60;;
76854;SDS011;66343;44.588;33.450;2023-05-10T11:11:12;4.70;;;1.60;;
76854;SDS011;66343;44.588;33.450;2023-05-10T11:13:46;4.22;;;1.33;;
76854;SDS011;66343;44.588;33.450;2023-05-10T11:16:25;6.20;;;1.70;;
76854;SDS011;66343;44.588;33.450;2023-05-10T11:21:31;7.88;;;1.88;;
76854;SDS011;66343;44.588;33.450;2023-05-10T11:24:09;4.65;;;1.45;;
76854;SDS011;66343;44.588;33.450;2023-05-10T11:26:45;4.55;;;1.30;;
76854;SDS011;66343;44.588;33.450;2023-05-10T11:29:22;5.35;;;1.63;;
76854;SDS011;66343;44.588;33.450;2023-05-10T11:31:52;5.25;;;1.65;;
76854;SDS011;66343;44.588;33.450;2023-05-10T11:34:32;7.78;;;1.73;;
76854;SDS011;66343;44.588;33.450;2023-05-10T11:37:06;4.35;;;1.52;;
76854;SDS011;66343;44.588;33.450;2023-05-10T11:39:45;4.88;;;1.50;;
76854;SDS011;66343;44.588;33.450;2023-05-10T11:42:25;6.60;;;1.75;;
76854;SDS011;66343;44.588;33.450;2023-05-10T11:45:00;4.72;;;1.65;;
76854;SDS011;66343;44.588;33.450;2023-05-10T11:47:35;6.72;;;2.10;;
76854;SDS011;66343;44.588;33.450;2023-05-10T11:50:07;5.90;;;1.85;;
76854;SDS011;66343;44.588;33.450;2023-05-10T11:52:39;7.15;;;1.73;;
76854;SDS011;66343;44.588;33.450;2023-05-10T11:55:19;4.18;;;1.60;;
76854;SDS011;66343;44.588;33.450;2023-05-10T11:57:59;5.63;;;1.67;;
76854;SDS011;66343;44.588;33.450;2023-05-10T12:00:34;5.55;;;1.63;;
76854;SDS011;66343;44.588;33.450;2023-05-10T12:03:10;5.32;;;1.90;;
76854;SDS011;66343;44.588;33.450;2023-05-10T12:05:42;6.20;;;1.70;;
76854;SDS011;66343;44.588;33.450;2023-05-10T12:08:15;5.75;;;1.70;;
76854;SDS011;66343;44.588;33.450;2023-05-10T12:10:50;5.68;;;1.75;;
76854;SDS011;66343;44.588;33.450;2023-05-10T12:13:39;6.07;;;1.73;;
76854;SDS011;66343;44.588;33.450;2023-05-10T12:16:21;5.32;;;2.03;;
76854;SDS011;66343;44.588;33.450;2023-05-10T12:18:58;6.60;;;1.85;;
76854;SDS011;66343;44.588;33.450;2023-05-10T12:21:50;6.18;;;1.83;;
76854;SDS011;66343;44.588;33.450;2023-05-10T12:26:59;4.18;;;1.60;;
76854;SDS011;66343;44.588;33.450;2023-05-10T12:29:31;6.25;;;1.70;;
76854;SDS011;66343;44.588;33.450;2023-05-10T12:32:05;4.93;;;1.77;;
76854;SDS011;66343;44.588;33.450;2023-05-10T12:34:41;5.47;;;1.70;;
76854;SDS011;66343;44.588;33.450;2023-05-10T12:37:11;5.15;;;1.58;;
76854;SDS011;66343;44.588;33.450;2023-05-10T12:39:46;5.32;;;1.58;;
76854;SDS011;66343;44.588;33.450;2023-05-10T12:42:18;5.60;;;1.63;;
76854;SDS011;66343;44.588;33.450;2023-05-10T12:44:56;5.90;;;1.85;;
76854;SDS011;66343;44.588;33.450;2023-05-10T12:47:35;5.85;;;1.73;;
76854;SDS011;66343;44.588;33.450;2023-05-10T12:50:05;6.57;;;1.52;;
76854;SDS011;66343;44.588;33.450;2023-05-10T12:52:37;4.90;;;1.52;;
76854;SDS011;66343;44.588;33.450;2023-05-10T12:55:08;4.90;;;1.60;;
76854;SDS011;66343;44.588;33.450;2023-05-10T12:57:46;6.13;;;1.50;;
76854;SDS011;66343;44.588;33.450;2023-05-10T13:00:16;5.70;;;1.45;;
76854;SDS011;66343;44.588;33.450;2023-05-10T13:02:49;4.38;;;1.42;;
76854;SDS011;66343;44.588;33.450;2023-05-10T13:05:24;5.22;;;1.50;;
76854;SDS011;66343;44.588;33.450;2023-05-10T13:07:56;6.95;;;1.58;;
76854;SDS011;66343;44.588;33.450;2023-05-10T13:10:31;4.38;;;1.40;;
76854;SDS011;66343;44.588;33.450;2023-05-10T13:13:05;5.18;;;1.42;;
76854;SDS011;66343;44.588;33.450;2023-05-10T13:15:40;5.07;;;1.33;;
76854;SDS011;66343;44.588;33.450;2023-05-10T13:18:10;4.07;;;1.50;;
76854;SDS011;66343;44.588;33.450;2023-05-10T13:23:17;4.82;;;1.48;;
76854;SDS011;66343;44.588;33.450;2023-05-10T13:25:52;4.97;;;1.30;;
76854;SDS011;66343;44.588;33.450;2023-05-10T13:28:28;5.07;;;1.65;;
76854;SDS011;66343;44.588;33.450;2023-05-10T13:31:01;3.15;;;1.13;;
76854;SDS011;66343;44.588;33.450;2023-05-10T13:33:34;3.47;;;1.33;;
76854;SDS011;66343;44.588;33.450;2023-05-10T13:36:06;8.88;;;1.90;;
76854;SDS011;66343;44.588;33.450;2023-05-10T13:38:38;5.85;;;1.33;;
76854;SDS011;66343;44.588;33.450;2023-05-10T13:41:10;5.53;;;1.50;;
76854;SDS011;66343;44.588;33.450;2023-05-10T13:43:39;4.38;;;1.33;;
76854;SDS011;66343;44.588;33.450;2023-05-10T13:46:09;7.82;;;1.60;;
76854;SDS011;66343;44.588;33.450;2023-05-10T13:48:39;5.47;;;1.67;;
76854;SDS011;66343;44.588;33.450;2023-05-10T13:51:11;7.63;;;1.42;;
76854;SDS011;66343;44.588;33.450;2023-05-10T13:56:19;5.72;;;1.23;;
76854;SDS011;66343;44.588;33.450;2023-05-10T13:58:54;3.47;;;1.20;;
76854;SDS011;66343;44.588;33.450;2023-05-10T14:01:28;5.07;;;1.42;;
76854;SDS011;66343;44.588;33.450;2023-05-10T14:04:03;3.38;;;1.30;;
76854;SDS011;66343;44.588;33.450;2023-05-10T14:06:38;5.07;;;1.38;;
76854;SDS011;66343;44.588;33.450;2023-05-10T14:09:13;4.30;;;1.25;;
76854;SDS011;66343;44.588;33.450;2023-05-10T14:11:51;4.57;;;1.58;;
76854;SDS011;66343;44.588;33.450;2023-05-10T14:14:23;6.05;;;1.40;;
76854;SDS011;66343;44.588;33.450;2023-05-10T14:16:54;5.18;;;1.23;;
76854;SDS011;66343;44.588;33.450;2023-05-10T14:19:28;4.35;;;1.30;;
76854;SDS011;66343;44.588;33.450;2023-05-10T14:22:03;3.17;;;1.13;;
76854;SDS011;66343;44.588;33.450;2023-05-10T14:24:41;4.80;;;1.33;;
76854;SDS011;66343;44.588;33.450;2023-05-10T14:27:16;3.80;;;1.35;;
76854;SDS011;66343;44.588;33.450;2023-05-10T14:29:47;6.28;;;1.35;;
76854;SDS011;66343;44.588;33.450;2023-05-10T14:32:19;5.22;;;1.50;;
76854;SDS011;66343;44.588;33.450;2023-05-10T14:34:51;5.20;;;1.40;;
76854;SDS011;66343;44.588;33.450;2023-05-10T14:37:21;4.38;;;1.35;;
76854;SDS011;66343;44.588;33.450;2023-05-10T14:39:53;4.07;;;1.30;;
76854;SDS011;66343;44.588;33.450;2023-05-10T14:42:48;20.05;;;3.33;;
76854;SDS011;66343;44.588;33.450;2023-05-10T14:45:26;9.70;;;2.17;;
76854;SDS011;66343;44.588;33.450;2023-05-10T14:48:05;6.03;;;1.90;;
76854;SDS011;66343;44.588;33.450;2023-05-10T14:50:46;5.32;;;1.63;;
76854;SDS011;66343;44.588;33.450;2023-05-10T14:53:18;4.88;;;1.80;;
76854;SDS011;66343;44.588;33.450;2023-05-10T14:55:52;9.35;;;1.98;;
76854;SDS011;66343;44.588;33.450;2023-05-10T14:58:25;6.32;;;2.00;;
76854;SDS011;66343;44.588;33.450;2023-05-10T15:00:57;5.63;;;2.10;;
76854;SDS011;66343;44.588;33.450;2023-05-10T15:03:30;6.78;;;1.88;;
76854;SDS011;66343;44.588;33.450;2023-05-10T15:06:06;5.95;;;1.90;;
76854;SDS011;66343;44.588;33.450;2023-05-10T15:08:39;5.82;;;2.20;;
76854;SDS011;66343;44.588;33.450;2023-05-10T15:11:08;6.40;;;2.08;;
76854;SDS011;66343;44.588;33.450;2023-05-10T15:13:41;5.60;;;1.83;;
76854;SDS011;66343;44.588;33.450;2023-05-10T15:16:16;7.28;;;2.30;;
76854;SDS011;66343;44.588;33.450;2023-05-10T15:18:46;5.95;;;1.88;;
76854;SDS011;66343;44.588;33.450;2023-05-10T15:21:16;7.30;;;2.20;;
76854;SDS011;66343;44.588;33.450;2023-05-10T15:23:49;7.57;;;2.45;;
76854;SDS011;66343;44.588;33.450;2023-05-10T15:26:23;6.45;;;2.00;;
76854;SDS011;66343;44.588;33.450;2023-05-10T15:28:56;6.65;;;1.92;;
76854;SDS011;66343;44.588;33.450;2023-05-10T15:31:27;7.07;;;2.15;;
76854;SDS011;66343;44.588;33.450;2023-05-10T15:33:58;8.70;;;2.50;;
76854;SDS011;66343;44.588;33.450;2023-05-10T15:36:31;5.20;;;2.03;;
76854;SDS011;66343;44.588;33.450;2023-05-10T15:39:06;5.93;;;2.03;;
76854;SDS011;66343;44.588;33.450;2023-05-10T15:41:40;5.45;;;1.90;;
76854;SDS011;66343;44.588;33.450;2023-05-10T15:44:14;9.05;;;1.77;;
76854;SDS011;66343;44.588;33.450;2023-05-10T15:46:45;5.00;;;1.83;;
76854;SDS011;66343;44.588;33.450;2023-05-10T15:49:19;6.50;;;2.10;;
76854;SDS011;66343;44.588;33.450;2023-05-10T15:51:51;6.07;;;2.03;;
76854;SDS011;66343;44.588;33.450;2023-05-10T15:54:31;7.07;;;2.08;;
76854;SDS011;66343;44.588;33.450;2023-05-10T15:57:04;5.25;;;1.58;;
76854;SDS011;66343;44.588;33.450;2023-05-10T15:59:33;6.00;;;2.10;;